Stations météo

réclame
Mon MeteoGroup
Friedrichshafen, Allemagne (10935): Température de l'air & dewpoint: 11.01.2019 01:00:00 - 17.01.2019 01:00:00 (CET)Friedrichshafen, Allemagne (10935): Vitesse du vent: 11.01.2019 01:00:00 - 17.01.2019 01:00:00 (CET)Friedrichshafen, Allemagne (10935): Direction du vent: 11.01.2019 01:00:00 - 17.01.2019 01:00:00 (CET)Friedrichshafen, Allemagne (10935): visibility: 11.01.2019 01:00:00 - 17.01.2019 01:00:00 (CET)
Date & Time tt [°C] td [°C] ff [km/h] ff [knt] dd vv [km]
17.01.2019 01:00:00 -2,0 -3,0 0 0 N 10
17.01.2019 00:00:00 -2,0 -3,0 4 2 - 10
16.01.2019 23:00:00 -2,0 -3,0 4 2 - 9
16.01.2019 22:00:00 -2,0 -3,0 4 2 - 7
16.01.2019 21:00:00 -2,0 -3,0 0 0 N 10
16.01.2019 20:00:00 -1,0 -2,0 2 1 NE 8
16.01.2019 19:00:00 0,0 -1,0 2 1 - 10
16.01.2019 18:00:00 1,0 -1,0 2 1 - 10
16.01.2019 17:00:00 4,0 0,0 2 1 SW 10
16.01.2019 16:00:00 4,0 -1,0 5 3 SW 10
16.01.2019 15:00:00 5,0 0,0 2 1 - 10
16.01.2019 14:00:00 3,0 -1,0 4 2 - 10
16.01.2019 13:00:00 0,0 -1,0 5 3 W 6
16.01.2019 12:00:00 -1,0 -1,0 5 3 W 4,5
16.01.2019 11:00:00 -1,0 -2,0 8 4 WSW 0,9
16.01.2019 10:00:00 0,0 -2,0 0 0 N 10
16.01.2019 09:00:00 -4,0 -4,0 0 0 N 10
16.01.2019 08:00:00 -5,0 -6,0 0 0 N 10
16.01.2019 07:00:00 -4,0 -5,0 2 1 - 10
16.01.2019 06:00:00 -5,0 -6,0 2 1 - 10
16.01.2019 05:00:00 -5,0 -5,0 4 2 - 10
16.01.2019 04:00:00 -5,0 -5,0 4 2 - 10
16.01.2019 03:00:00 -4,0 -5,0 2 1 - 9
16.01.2019 02:00:00 -3,0 -4,0 2 1 - 6
16.01.2019 01:00:00 -3,0 -4,0 5 3 NE 10
16.01.2019 00:00:00 -3,0 -3,0 2 1 - 8
15.01.2019 23:00:00 -1,0 -2,0 4 2 - 10
15.01.2019 22:00:00 0,0 -2,0 5 3 - 10
15.01.2019 21:00:00 -1,0 -2,0 8 4 ENE 10
15.01.2019 20:00:00 1,0 -1,0 9 5 SSW 10
15.01.2019 19:00:00 2,0 -1,0 9 5 SW 10
15.01.2019 18:00:00 2,0 -1,0 8 4 SW 10
15.01.2019 17:00:00 4,0 -1,0 11 6 W 10
15.01.2019 16:00:00 5,0 0,0 15 8 WSW 10
15.01.2019 15:00:00 5,0 0,0 18 10 WSW 10
15.01.2019 14:00:00 6,0 0,0 18 10 WSW 10
15.01.2019 13:00:00 5,0 1,0 15 8 WSW 10
15.01.2019 12:00:00 3,0 0,0 4 2 - 10
15.01.2019 11:00:00 2,0 0,0 4 2 - 10
15.01.2019 10:00:00 1,0 0,0 5 3 - 10
15.01.2019 09:00:00 0,0 -1,0 0 0 N 10
15.01.2019 08:00:00 1,0 -1,0 5 3 SSW 10
15.01.2019 07:00:00 0,0 -1,0 2 1 - 10
15.01.2019 06:00:00 1,0 -1,0 4 2 SW 10
15.01.2019 05:00:00 0,0 0,0 4 2 - 10
15.01.2019 04:00:00 0,0 0,0 4 2 - 10
15.01.2019 03:00:00 1,0 0,0 8 4 WSW 10
15.01.2019 02:00:00 1,0 0,0 4 2 - 10
15.01.2019 01:00:00 1,0 0,0 9 5 WSW 10
15.01.2019 00:00:00 0,0 0,0 4 2 - 10
14.01.2019 23:00:00 0,0 0,0 4 2 NE 10
14.01.2019 22:00:00 0,0 0,0 2 1 - 10
14.01.2019 21:00:00 1,0 0,0 2 1 - 10
14.01.2019 20:00:00 1,0 0,0 4 2 - 10
14.01.2019 19:00:00 2,0 0,0 2 1 - 10
14.01.2019 18:00:00 3,0 0,0 16 9 NNW 10
14.01.2019 17:00:00 5,0 1,0 15 8 W 10
14.01.2019 16:00:00 5,0 1,0 22 12 W 10
14.01.2019 15:00:00 5,0 2,0 21 11 WSW 10
14.01.2019 14:00:00 5,0 1,0 28 15 W 10
14.01.2019 13:00:00 5,0 2,0 21 11 WSW 10
14.01.2019 12:00:00 5,0 2,0 21 11 WSW 10
14.01.2019 11:00:00 5,0 1,0 15 8 W 10
14.01.2019 10:00:00 4,0 2,0 11 6 W 10
14.01.2019 09:00:00 4,0 1,0 9 5 W 10
14.01.2019 08:00:00 3,0 1,0 13 7 W 10
14.01.2019 07:00:00 4,0 3,0 11 6 WSW 10
14.01.2019 06:00:00 4,0 2,0 5 3 W 10
14.01.2019 05:00:00 4,0 2,0 4 2 - 10
14.01.2019 04:00:00 5,0 3,0 15 8 WNW 10
14.01.2019 03:00:00 6,0 5,0 11 6 W 10
14.01.2019 02:00:00 6,0 4,0 31 17 WSW 10
14.01.2019 01:00:00 6,0 4,0 28 15 WSW 10
14.01.2019 00:00:00 6,0 4,0 31 17 WSW 6
13.01.2019 23:00:00 6,0 4,0 41 22 WSW 10
13.01.2019 22:00:00 6,0 4,0 35 19 WSW 10
13.01.2019 21:00:00 6,0 3,0 35 19 WSW 10
13.01.2019 20:00:00 6,0 3,0 31 17 WSW 10
13.01.2019 19:00:00 6,0 4,0 24 13 SW 8
13.01.2019 18:00:00 6,0 4,0 26 14 SW 8
13.01.2019 17:00:00 5,0 3,0 31 17 SW 10
13.01.2019 16:00:00 5,0 2,0 31 17 WSW 10
13.01.2019 15:00:00 4,0 2,0 31 17 SW 10
13.01.2019 14:00:00 4,0 2,0 26 14 SW 10
13.01.2019 13:00:00 3,0 2,0 22 12 WSW 10
13.01.2019 12:00:00 3,0 1,0 28 15 WSW 7
13.01.2019 11:00:00 3,0 1,0 34 18 WSW 7
13.01.2019 10:00:00 3,0 1,0 31 17 WSW 10
13.01.2019 09:00:00 3,0 1,0 26 14 WSW 10
13.01.2019 08:00:00 3,0 1,0 22 12 W 10
13.01.2019 07:00:00 2,0 1,0 11 6 W 8
13.01.2019 06:00:00 2,0 1,0 15 8 WSW 8
13.01.2019 05:00:00 2,0 1,0 15 8 W 10
13.01.2019 04:00:00 2,0 1,0 22 12 W 10
13.01.2019 03:00:00 2,0 0,0 16 9 W 10
13.01.2019 02:00:00 2,0 1,0 16 9 W 10
13.01.2019 01:00:00 2,0 0,0 31 17 WSW 10
13.01.2019 00:00:00 2,0 0,0 18 10 WSW 10
12.01.2019 23:00:00 1,0 0,0 22 12 WSW 7
12.01.2019 22:00:00 2,0 0,0 26 14 WSW 9
12.01.2019 21:00:00 3,0 0,0 22 12 WSW 10
12.01.2019 20:00:00 3,0 -1,0 21 11 WSW 10
12.01.2019 19:00:00 3,0 0,0 24 13 SW 8
12.01.2019 18:00:00 3,0 0,0 16 9 SW 8
12.01.2019 17:00:00 2,0 0,0 22 12 SW 8
12.01.2019 16:00:00 2,0 0,0 18 10 WSW 8
12.01.2019 15:00:00 2,0 0,0 21 11 SW 8
12.01.2019 14:00:00 2,0 0,0 18 10 SW 10
12.01.2019 13:00:00 1,0 0,0 13 7 SW 8
12.01.2019 12:00:00 1,0 0,0 9 5 SW 4,3
12.01.2019 11:00:00 1,0 0,0 8 4 SSW 3,0
12.01.2019 10:00:00 1,0 0,0 11 6 SW 3,4
12.01.2019 09:00:00 1,0 -1,0 9 5 WSW 10
12.01.2019 08:00:00 1,0 -1,0 11 6 WSW 10
12.01.2019 07:00:00 1,0 -1,0 13 7 SSW 10
12.01.2019 06:00:00 0,0 -1,0 18 10 SSW 8
12.01.2019 05:00:00 0,0 -1,0 18 10 SW 6
12.01.2019 04:00:00 0,0 -1,0 16 9 SW 3,6
12.01.2019 03:00:00 0,0 -1,0 16 9 SW 3,1
12.01.2019 02:00:00 0,0 -1,0 16 9 SW 3,6
12.01.2019 01:00:00 -1,0 -1,0 16 9 SW 2,2
12.01.2019 00:00:00 -1,0 -2,0 13 7 SSW 2,2
11.01.2019 23:00:00 -1,0 -2,0 13 7 SSW 3,6
11.01.2019 22:00:00 -1,0 -2,0 13 7 SW 2,2
11.01.2019 21:00:00 -1,0 -2,0 15 8 SSW 2,2
11.01.2019 20:00:00 -1,0 -2,0 16 9 SW 2,1
11.01.2019 19:00:00 -1,0 -3,0 16 9 WSW 10
11.01.2019 18:00:00 0,0 -3,0 18 10 WSW 10
11.01.2019 17:00:00 0,0 -3,0 16 9 SW 9
11.01.2019 16:00:00 -1,0 -3,0 8 4 WSW 10
11.01.2019 15:00:00 0,0 -4,0 8 4 WSW 10
11.01.2019 14:00:00 0,0 -3,0 0 0 N 10
11.01.2019 13:00:00 0,0 -4,0 0 0 N 10
11.01.2019 12:00:00 -1,0 -3,0 0 0 N 10
11.01.2019 11:00:00 -2,0 -4,0 2 1 - 10
11.01.2019 10:00:00 -3,0 -4,0 4 2 E 10
11.01.2019 09:00:00 -4,0 -5,0 0 0 N 8
11.01.2019 08:00:00 -4,0 -5,0 5 3 NE 10
11.01.2019 07:00:00 -5,0 -5,0 5 3 NE 8
11.01.2019 06:00:00 -7,0 -7,0 0 0 N 3,8
11.01.2019 05:00:00 -5,0 -5,0 2 1 - 1,4
11.01.2019 04:00:00 -3,0 -3,0 4 2 NNE 10
11.01.2019 03:00:00 -2,0 -4,0 4 2 - 10
11.01.2019 02:00:00 -2,0 -3,0 4 2 - 10
11.01.2019 01:00:00 -2,0 -3,0 4 2 - 10

tt = Température de l'air
td = dewpoint
ff = Vitesse du vent
dd = Direction du vent
vv = visibility

stations d'obs. à proximité